Weather at Nanga Pinoh Airport

Public forecast

Using degrees Celsius for public forecast. Weather courtesy of forecast.io.

Closest aviation weather report (METAR) to Nanga Pinoh Airport

Closest report is Simanggang Airport, 95.8 nm (177.5 km) N. Retrieved 2021/11/29 07:00 UTC (42 minutes ago):

WBGY 290700Z VRB03KT 9999 SCT023 32/25 Q1006

Closest aviation forecast (TAF) to Nanga Pinoh Airport

Closest forecast is Kuching International Airport, 138.5 nm (256.6 km) NW. Retrieved 2021/11/29 06:18 UTC (1 hour ago):

TAF TAF WBGG 290500Z 2906/3006 16005KT 9999 SCT020 TEMPO 2906/2911 25010G20KT 4000 TSRA FEW015CB